Time;durP1;ratioP1;P1;durP2;ratioP2;P2;SDS_P1;SDS_P2;PMS_P1;PMS_P2;Temp;Humidity;BMP_temperature;BMP_pressure;BME280_temperature;BME280_humidity;BME280_pressure;Samples;Min_cycle;Max_cycle;Signal;HPM_P1;HPM_P2
2023/08/11 00:00:47;;;;;;;7.75;3.17;;;19.40;85.50;;;;;;5017385;28;20370;-88
2023/08/11 00:03:14;;;;;;;5.00;3.35;;;19.50;85.80;;;;;;5016996;28;20067;-87
2023/08/11 00:05:39;;;;;;;5.13;3.35;;;19.40;85.80;;;;;;5017087;28;20021;-87
2023/08/11 00:08:06;;;;;;;5.57;3.08;;;19.40;86.00;;;;;;5000527;28;20029;-86
2023/08/11 00:10:35;;;;;;;6.13;3.80;;;19.30;86.10;;;;;;5016759;28;20018;-87
2023/08/11 00:13:01;;;;;;;7.88;3.72;;;19.40;86.40;;;;;;5033524;28;20025;-87
2023/08/11 00:15:28;;;;;;;5.32;2.90;;;19.30;86.50;;;;;;5017161;28;20037;-87
2023/08/11 00:17:57;;;;;;;5.85;3.95;;;19.30;86.70;;;;;;5034443;28;20036;-87
2023/08/11 00:20:23;;;;;;;8.07;3.85;;;19.30;86.90;;;;;;5016784;28;20029;-87
2023/08/11 00:22:49;;;;;;;6.80;3.70;;;19.30;87.00;;;;;;5000351;28;20525;-87
2023/08/11 00:25:15;;;;;;;5.85;3.72;;;19.30;87.30;;;;;;5034314;28;20033;-87
2023/08/11 00:27:40;;;;;;;5.43;3.70;;;19.20;87.40;;;;;;5000200;28;20113;-87
2023/08/11 00:30:08;;;;;;;5.78;3.63;;;19.20;87.50;;;;;;5000146;28;20124;-86
2023/08/11 00:32:33;;;;;;;5.45;3.75;;;19.20;87.70;;;;;;5000264;28;20112;-87
2023/08/11 00:34:59;;;;;;;5.47;3.47;;;19.20;87.80;;;;;;5016336;28;20125;-87
2023/08/11 00:37:25;;;;;;;7.10;3.55;;;19.10;87.90;;;;;;5034033;28;20037;-86
2023/08/11 00:39:51;;;;;;;7.85;4.10;;;19.10;88.10;;;;;;5016194;28;20053;-87
2023/08/11 00:42:17;;;;;;;7.63;3.65;;;19.10;88.20;;;;;;5016548;28;20432;-87
2023/08/11 00:44:43;;;;;;;6.82;3.75;;;19.10;88.40;;;;;;4999801;28;20029;-87
2023/08/11 00:47:09;;;;;;;7.82;4.38;;;19.10;88.50;;;;;;4999766;28;20080;-87
2023/08/11 00:49:34;;;;;;;6.88;3.95;;;19.00;88.50;;;;;;5016204;28;20071;-85
2023/08/11 00:52:01;;;;;;;7.25;3.85;;;19.00;88.70;;;;;;4999840;28;20034;-87
2023/08/11 00:54:27;;;;;;;6.13;3.70;;;19.00;88.70;;;;;;4999839;28;20033;-86
2023/08/11 00:56:54;;;;;;;5.57;3.72;;;19.00;88.90;;;;;;5016124;28;20037;-87
2023/08/11 00:59:21;;;;;;;6.53;4.05;;;19.00;89.00;;;;;;5016140;28;20076;-89
2023/08/11 01:01:46;;;;;;;9.43;4.38;;;18.90;89.10;;;;;;4999931;28;20132;-86
2023/08/11 01:04:12;;;;;;;6.35;3.92;;;18.90;89.20;;;;;;4999769;28;20536;-87
2023/08/11 01:06:40;;;;;;;6.40;4.18;;;18.90;89.30;;;;;;5016366;28;20025;-87
2023/08/11 01:09:28;;;;;;;5.65;3.97;;;18.90;89.50;;;;;;5016017;28;20052;-87
2023/08/11 01:12:16;;;;;;;8.13;4.18;;;18.90;89.70;;;;;;5015854;28;20052;-86
2023/08/11 01:15:01;;;;;;;7.35;3.88;;;18.80;89.70;;;;;;5016021;28;20381;-86
2023/08/11 01:17:29;;;;;;;8.10;4.10;;;18.80;89.90;;;;;;5016014;28;20033;-87
2023/08/11 01:19:55;;;;;;;7.20;5.03;;;18.80;89.90;;;;;;5015935;28;20492;-85
2023/08/11 01:22:26;;;;;;;8.00;4.82;;;18.80;90.00;;;;;;5000368;28;20033;-87
2023/08/11 01:24:52;;;;;;;6.57;4.03;;;18.80;90.00;;;;;;5018991;28;20047;-86
2023/08/11 01:27:18;;;;;;;9.35;4.45;;;18.70;90.10;;;;;;5003515;28;20017;-86
2023/08/11 01:29:44;;;;;;;6.18;4.30;;;18.70;90.10;;;;;;5004154;28;20068;-87
2023/08/11 01:32:10;;;;;;;7.60;4.78;;;18.60;90.20;;;;;;5020635;28;20014;-87
2023/08/11 01:34:35;;;;;;;8.02;4.78;;;18.70;90.30;;;;;;5004471;28;20053;-86
2023/08/11 01:37:01;;;;;;;8.80;5.13;;;18.70;90.40;;;;;;5003217;28;20104;-87
2023/08/11 01:39:28;;;;;;;6.57;4.50;;;18.60;90.50;;;;;;4989163;28;20058;-87
2023/08/11 01:41:55;;;;;;;8.98;4.50;;;18.60;90.50;;;;;;5019542;28;20164;-87
2023/08/11 01:44:22;;;;;;;9.55;4.90;;;18.60;90.60;;;;;;5019628;28;20074;-86
2023/08/11 01:46:50;;;;;;;8.20;4.90;;;18.60;90.70;;;;;;5020168;28;20168;-87
2023/08/11 01:49:17;;;;;;;6.63;4.65;;;18.60;90.80;;;;;;5037554;28;20417;-87
2023/08/11 01:51:43;;;;;;;7.10;4.30;;;18.50;90.80;;;;;;5037922;28;20025;-87
2023/08/11 01:54:09;;;;;;;9.05;5.28;;;18.50;90.90;;;;;;5019512;28;20503;-87
2023/08/11 01:56:37;;;;;;;10.02;5.07;;;18.50;91.00;;;;;;5020110;28;20031;-89
2023/08/11 01:59:04;;;;;;;6.93;5.13;;;18.40;91.00;;;;;;5019290;28;20025;-87
2023/08/11 02:01:30;;;;;;;6.15;4.55;;;18.40;91.10;;;;;;5019467;28;20112;-89
2023/08/11 02:03:56;;;;;;;6.43;4.38;;;18.40;91.50;;;;;;5019207;28;20393;-89
2023/08/11 02:06:21;;;;;;;9.43;5.85;;;18.40;91.30;;;;;;5003086;28;20026;-86
2023/08/11 02:08:47;;;;;;;10.07;5.60;;;18.40;91.40;;;;;;5002778;28;20053;-88
2023/08/11 02:11:13;;;;;;;7.60;5.28;;;18.30;91.40;;;;;;5019605;28;20068;-89
2023/08/11 02:13:39;;;;;;;8.65;5.28;;;18.30;91.50;;;;;;5019107;28;20436;-89
2023/08/11 02:16:05;;;;;;;8.75;5.65;;;18.30;91.60;;;;;;5002767;28;20101;-90
2023/08/11 02:18:31;;;;;;;8.50;5.32;;;18.20;91.70;;;;;;5002672;28;20472;-89
2023/08/11 02:20:56;;;;;;;8.25;4.95;;;18.30;91.70;;;;;;5002420;28;20385;-88
2023/08/11 02:23:22;;;;;;;10.73;4.68;;;18.20;91.80;;;;;;5002746;28;20389;-89
2023/08/11 02:25:48;;;;;;;8.65;5.10;;;18.20;91.80;;;;;;5018961;28;20029;-89
2023/08/11 02:28:13;;;;;;;9.75;5.20;;;18.20;91.80;;;;;;5002748;28;20029;-89
2023/08/11 02:30:41;;;;;;;10.43;5.68;;;18.20;91.90;;;;;;5002534;28;20559;-89
2023/08/11 02:33:06;;;;;;;8.32;5.22;;;18.20;92.00;;;;;;5036249;28;20021;-89
2023/08/11 02:35:32;;;;;;;13.27;6.57;;;18.10;92.00;;;;;;5035195;28;20021;-88
2023/08/11 02:37:58;;;;;;;9.32;6.13;;;18.10;92.10;;;;;;5018425;28;20017;-88
2023/08/11 02:40:24;;;;;;;8.30;5.80;;;18.10;92.20;;;;;;5036341;28;20053;-86
2023/08/11 02:42:56;;;;;;;10.35;5.82;;;18.10;92.20;;;;;;5018636;28;20026;-89
2023/08/11 02:45:22;;;;;;;9.35;6.07;;;18.10;92.30;;;;;;5018377;28;20029;-87
2023/08/11 02:47:50;;;;;;;9.25;6.45;;;18.10;92.40;;;;;;5002212;28;20037;-89
2023/08/11 02:50:15;;;;;;;10.07;5.72;;;18.00;92.70;;;;;;5002348;28;20021;-88
2023/08/11 02:52:41;;;;;;;10.25;6.32;;;18.00;92.50;;;;;;5018389;28;20061;-89
2023/08/11 02:55:08;;;;;;;8.80;5.82;;;18.00;92.60;;;;;;5001766;28;20145;-87
2023/08/11 02:57:34;;;;;;;11.15;6.35;;;18.00;92.60;;;;;;5001784;28;20063;-87
2023/08/11 03:00:00;;;;;;;10.05;5.85;;;18.00;92.70;;;;;;5018272;28;20084;-87
2023/08/11 03:02:26;;;;;;;8.23;5.88;;;17.90;92.70;;;;;;5001768;28;20033;-87
2023/08/11 03:04:52;;;;;;;8.50;4.80;;;18.00;92.80;;;;;;5001882;28;20044;-87
2023/08/11 03:07:18;;;;;;;7.90;5.63;;;17.90;92.90;;;;;;5018106;28;20383;-87
2023/08/11 03:09:43;;;;;;;8.68;5.95;;;17.90;92.90;;;;;;5001718;28;20025;-87
2023/08/11 03:12:09;;;;;;;9.05;6.00;;;17.80;93.00;;;;;;5001752;28;20488;-89
2023/08/11 03:14:36;;;;;;;8.93;5.93;;;17.80;93.00;;;;;;5001889;28;20034;-89
2023/08/11 03:17:05;;;;;;;9.10;5.82;;;17.90;93.10;;;;;;5001611;28;20053;-88
2023/08/11 03:19:31;;;;;;;9.63;5.93;;;17.80;93.10;;;;;;5001986;28;20029;-88
2023/08/11 03:21:57;;;;;;;8.05;5.68;;;17.70;93.10;;;;;;5017720;28;20029;-88
2023/08/11 03:24:23;;;;;;;8.38;5.47;;;17.70;93.20;;;;;;5017694;28;20029;-88
2023/08/11 03:26:48;;;;;;;10.20;6.13;;;17.80;93.50;;;;;;5001341;28;20056;-88
2023/08/11 03:29:14;;;;;;;8.98;5.68;;;17.70;93.30;;;;;;5001210;28;20124;-88
2023/08/11 03:31:40;;;;;;;11.60;6.00;;;17.70;93.30;;;;;;5017638;28;20025;-88
2023/08/11 03:34:06;;;;;;;11.23;6.32;;;17.70;93.30;;;;;;5001248;28;20536;-88
2023/08/11 03:36:31;;;;;;;8.57;5.78;;;17.70;93.40;;;;;;5033780;28;20037;-88
2023/08/11 03:38:57;;;;;;;8.80;6.05;;;17.70;93.40;;;;;;5034984;28;20025;-88
2023/08/11 03:41:22;;;;;;;8.73;6.45;;;17.60;93.50;;;;;;4997663;28;20061;-88
2023/08/11 03:43:48;;;;;;;8.00;5.65;;;17.60;93.50;;;;;;5030326;28;20037;-88
2023/08/11 03:46:14;;;;;;;10.05;5.75;;;17.60;93.60;;;;;;5013801;28;20057;-88
2023/08/11 03:48:39;;;;;;;9.38;5.65;;;17.50;93.70;;;;;;5030350;28;20080;-88
2023/08/11 03:51:05;;;;;;;7.13;5.38;;;17.50;93.80;;;;;;5013853;28;20029;-88
2023/08/11 03:53:31;;;;;;;6.90;5.07;;;17.60;94.10;;;;;;4997501;28;20045;-88
2023/08/11 03:55:57;;;;;;;8.60;5.72;;;17.50;93.90;;;;;;5030322;28;20176;-88
2023/08/11 03:58:23;;;;;;;11.00;5.50;;;17.50;93.90;;;;;;5013977;28;20030;-88
2023/08/11 04:00:49;;;;;;;8.40;5.35;;;17.50;94.30;;;;;;5013720;28;20041;-88
2023/08/11 04:03:14;;;;;;;9.05;5.47;;;17.50;94.00;;;;;;5013538;28;20116;-88
2023/08/11 04:05:41;;;;;;;8.18;5.65;;;17.50;94.10;;;;;;5013636;28;20022;-88
2023/08/11 04:08:07;;;;;;;7.82;5.50;;;17.40;94.10;;;;;;5013522;28;20030;-88
2023/08/11 04:10:35;;;;;;;9.15;5.80;;;17.40;94.10;;;;;;5013443;28;20030;-88
2023/08/11 04:13:00;;;;;;;11.32;6.00;;;17.40;94.20;;;;;;5013692;28;20095;-88
2023/08/11 04:15:26;;;;;;;9.60;5.95;;;17.40;94.30;;;;;;5013415;28;20089;-88
2023/08/11 04:17:52;;;;;;;8.18;5.22;;;17.40;94.30;;;;;;5013331;28;20072;-88
2023/08/11 04:20:18;;;;;;;8.40;5.88;;;17.40;94.40;;;;;;5014599;28;20033;-88
2023/08/11 04:22:44;;;;;;;10.90;6.03;;;17.40;94.40;;;;;;5013314;28;20114;-88
2023/08/11 04:25:11;;;;;;;9.30;5.78;;;17.40;94.40;;;;;;5013093;28;20041;-88
2023/08/11 04:27:39;;;;;;;12.10;5.25;;;17.40;94.50;;;;;;5013328;28;20022;-88
2023/08/11 04:30:06;;;;;;;9.02;5.07;;;17.30;94.50;;;;;;5014424;28;20022;-87
2023/08/11 04:32:32;;;;;;;8.85;5.45;;;17.30;94.60;;;;;;4996914;28;20547;-88
2023/08/11 04:34:58;;;;;;;8.50;4.95;;;17.30;94.60;;;;;;5013240;28;20042;-88
2023/08/11 04:37:24;;;;;;;9.43;5.32;;;17.30;94.60;;;;;;5013046;28;20022;-87
2023/08/11 04:39:49;;;;;;;8.13;5.40;;;17.30;94.70;;;;;;5016048;28;20076;-88
2023/08/11 04:42:15;;;;;;;10.20;5.28;;;17.30;94.70;;;;;;4999849;28;20033;-88
2023/08/11 04:44:41;;;;;;;9.70;5.30;;;17.30;94.70;;;;;;5016086;28;20099;-88
2023/08/11 04:47:06;;;;;;;10.00;4.88;;;17.30;94.80;;;;;;4999780;28;20028;-87
2023/08/11 04:49:32;;;;;;;9.40;5.50;;;17.40;94.90;;;;;;4999810;28;20099;-88
2023/08/11 04:52:01;;;;;;;9.38;5.70;;;17.40;94.90;;;;;;4999724;28;20067;-88
2023/08/11 04:54:27;;;;;;;7.60;4.78;;;17.30;94.90;;;;;;5033558;28;20033;-88
2023/08/11 04:56:53;;;;;;;9.43;5.72;;;17.40;95.00;;;;;;5016602;28;20064;-88
2023/08/11 04:59:18;;;;;;;7.93;5.57;;;17.40;95.00;;;;;;5015543;28;20037;-88
2023/08/11 05:01:44;;;;;;;7.07;4.47;;;17.40;95.10;;;;;;5016041;28;20030;-88
2023/08/11 05:04:10;;;;;;;7.20;5.30;;;17.40;95.10;;;;;;5016003;28;20030;-88
2023/08/11 05:06:36;;;;;;;9.80;5.50;;;17.40;95.20;;;;;;5033613;28;20533;-88
2023/08/11 05:09:05;;;;;;;8.35;5.30;;;17.40;95.20;;;;;;4999713;28;20040;-86
2023/08/11 05:11:31;;;;;;;8.50;5.47;;;17.50;95.30;;;;;;5015886;28;20026;-88
2023/08/11 05:13:57;;;;;;;8.18;5.20;;;17.50;95.30;;;;;;5033676;28;20058;-88
2023/08/11 05:16:24;;;;;;;9.13;5.30;;;17.50;95.40;;;;;;5016271;28;20033;-88
2023/08/11 05:18:49;;;;;;;8.70;5.10;;;17.50;95.40;;;;;;5016173;28;20028;-88
2023/08/11 05:21:17;;;;;;;9.60;4.63;;;17.50;95.40;;;;;;5016011;28;20021;-86
2023/08/11 05:23:43;;;;;;;9.32;5.25;;;17.50;95.40;;;;;;5000070;28;20392;-88
2023/08/11 05:26:08;;;;;;;8.85;4.85;;;17.60;95.50;;;;;;5016576;28;20092;-88
2023/08/11 05:28:34;;;;;;;10.02;5.38;;;17.50;95.40;;;;;;5016966;28;20037;-88
2023/08/11 05:31:01;;;;;;;10.85;5.82;;;17.60;95.50;;;;;;5035396;28;20470;-88
2023/08/11 05:33:26;;;;;;;8.25;5.22;;;17.60;95.70;;;;;;5000273;28;20040;-87
2023/08/11 05:35:52;;;;;;;8.25;5.07;;;17.60;95.50;;;;;;5016094;28;20033;-88
2023/08/11 05:38:21;;;;;;;9.23;5.68;;;17.70;95.50;;;;;;5015802;28;20439;-88
2023/08/11 05:40:47;;;;;;;9.65;5.22;;;17.70;95.50;;;;;;5012553;28;20120;-88
2023/08/11 05:43:13;;;;;;;9.65;4.13;;;17.80;95.50;;;;;;5012319;28;20124;-88
2023/08/11 05:45:38;;;;;;;6.97;4.72;;;17.80;95.50;;;;;;5012204;28;20026;-87
2023/08/11 05:48:04;;;;;;;8.82;5.30;;;17.80;95.40;;;;;;5012233;28;20030;-88
2023/08/11 05:50:30;;;;;;;8.35;4.50;;;17.80;95.40;;;;;;5028621;28;20501;-88
2023/08/11 05:52:56;;;;;;;7.47;4.40;;;17.90;95.40;;;;;;5012094;28;20030;-88
2023/08/11 05:55:22;;;;;;;8.43;4.53;;;17.90;95.40;;;;;;5012156;28;20107;-88
2023/08/11 05:57:48;;;;;;;6.80;4.47;;;17.90;95.30;;;;;;5012046;28;20458;-88
2023/08/11 06:00:16;;;;;;;6.72;4.75;;;17.90;95.30;;;;;;5028803;28;20088;-86
2023/08/11 06:02:42;;;;;;;9.63;4.68;;;18.00;95.30;;;;;;5012366;28;20609;-89
2023/08/11 06:05:08;;;;;;;6.53;4.00;;;18.00;95.20;;;;;;4995845;28;20126;-89
2023/08/11 06:07:33;;;;;;;8.38;4.68;;;18.00;95.20;;;;;;5012031;28;20068;-88
2023/08/11 06:09:59;;;;;;;7.68;4.28;;;18.10;95.20;;;;;;5013300;28;20030;-88
2023/08/11 06:12:25;;;;;;;8.50;4.20;;;18.10;95.10;;;;;;5015654;28;20030;-89
2023/08/11 06:14:50;;;;;;;8.75;4.55;;;18.20;95.40;;;;;;5032698;28;20600;-89
2023/08/11 06:17:16;;;;;;;7.40;4.55;;;18.20;95.00;;;;;;5015707;28;20041;-88
2023/08/11 06:19:41;;;;;;;8.20;4.65;;;18.20;94.90;;;;;;5015561;28;20504;-88
2023/08/11 06:22:07;;;;;;;11.57;4.97;;;18.30;94.90;;;;;;4999321;28;20481;-89
2023/08/11 06:24:33;;;;;;;8.02;4.82;;;18.30;94.80;;;;;;4999172;28;20030;-89
2023/08/11 06:26:59;;;;;;;10.15;4.40;;;18.30;94.80;;;;;;5015471;28;20029;-88
2023/08/11 06:29:25;;;;;;;9.60;4.35;;;18.40;94.70;;;;;;5032059;28;20431;-89
2023/08/11 06:31:51;;;;;;;8.45;4.35;;;18.40;94.70;;;;;;5032467;28;20056;-89
2023/08/11 06:34:17;;;;;;;7.20;4.50;;;18.40;94.60;;;;;;5016574;28;20028;-89
2023/08/11 06:36:45;;;;;;;8.00;4.60;;;18.40;94.50;;;;;;5000190;28;20482;-88
2023/08/11 06:39:11;;;;;;;8.55;4.30;;;18.50;94.50;;;;;;4979685;28;20030;-88
2023/08/11 06:41:38;;;;;;;6.60;4.15;;;18.50;94.50;;;;;;4995060;28;20054;-87
2023/08/11 06:44:04;;;;;;;7.18;4.30;;;18.60;94.50;;;;;;4979142;28;20027;-87
2023/08/11 06:46:30;;;;;;;7.35;4.10;;;18.60;94.40;;;;;;4995342;28;20478;-87
2023/08/11 06:48:56;;;;;;;8.75;4.57;;;18.60;94.40;;;;;;4979607;28;20141;-88
2023/08/11 06:51:21;;;;;;;13.95;4.45;;;18.70;94.40;;;;;;4995189;28;20033;-88
2023/08/11 06:53:47;;;;;;;8.32;4.30;;;18.70;94.30;;;;;;4995192;28;20096;-88
2023/08/11 06:56:13;;;;;;;8.32;4.25;;;18.70;94.20;;;;;;4995077;28;20042;-88
2023/08/11 06:58:38;;;;;;;8.60;4.35;;;18.80;94.10;;;;;;4962940;28;20081;-88
2023/08/11 07:01:04;;;;;;;6.53;3.95;;;18.80;94.10;;;;;;4995127;28;20034;-88
2023/08/11 07:03:33;;;;;;;7.75;4.68;;;18.80;94.00;;;;;;4996408;28;20038;-88
2023/08/11 07:06:02;;;;;;;8.15;3.95;;;18.90;94.00;;;;;;4996754;28;20033;-87
2023/08/11 07:08:28;;;;;;;10.27;5.00;;;18.90;93.90;;;;;;4995100;28;20025;-88
2023/08/11 07:10:53;;;;;;;7.15;4.10;;;19.00;93.80;;;;;;4994860;28;20034;-87
2023/08/11 07:13:19;;;;;;;9.95;4.68;;;19.00;93.70;;;;;;4978748;28;20030;-87
2023/08/11 07:15:45;;;;;;;9.15;3.90;;;19.00;93.60;;;;;;4962959;28;20034;-86
2023/08/11 07:18:11;;;;;;;7.03;3.83;;;19.10;93.60;;;;;;4994715;28;20030;-87
2023/08/11 07:20:43;;;;;;;9.75;4.43;;;19.20;93.60;;;;;;4995888;28;20030;-87
2023/08/11 07:23:09;;;;;;;6.78;3.63;;;19.20;93.60;;;;;;4994380;28;20447;-88
2023/08/11 07:25:35;;;;;;;10.00;4.43;;;19.20;93.50;;;;;;4962270;28;20117;-87
2023/08/11 07:28:01;;;;;;;8.43;4.35;;;19.30;93.40;;;;;;4994461;28;20494;-88
2023/08/11 07:30:29;;;;;;;9.10;4.20;;;19.30;93.30;;;;;;4978667;28;20034;-87
2023/08/11 07:32:55;;;;;;;9.65;4.13;;;19.40;93.60;;;;;;4963127;28;20174;-88
2023/08/11 07:35:21;;;;;;;8.30;3.97;;;19.40;93.30;;;;;;4962296;28;20124;-86
2023/08/11 07:37:47;;;;;;;6.03;3.53;;;19.50;93.30;;;;;;4994430;28;20502;-88
2023/08/11 07:40:12;;;;;;;7.93;3.80;;;19.50;93.30;;;;;;4961386;28;20407;-87
2023/08/11 07:42:38;;;;;;;7.75;4.32;;;19.60;93.20;;;;;;4975937;28;20023;-88
2023/08/11 07:45:04;;;;;;;7.03;3.55;;;19.60;93.20;;;;;;4974891;28;20125;-88
2023/08/11 07:47:30;;;;;;;9.25;3.53;;;19.70;93.20;;;;;;4958758;28;20030;-88
2023/08/11 07:49:56;;;;;;;8.00;3.60;;;19.70;93.20;;;;;;4974648;28;20031;-87
2023/08/11 07:52:21;;;;;;;7.43;4.28;;;19.80;93.10;;;;;;4974809;28;20026;-86
2023/08/11 07:54:47;;;;;;;8.57;3.72;;;19.80;93.10;;;;;;4958478;28;20398;-88
2023/08/11 07:57:12;;;;;;;9.32;4.47;;;19.90;93.00;;;;;;4958522;28;20174;-89
2023/08/11 07:59:38;;;;;;;8.57;4.00;;;20.00;93.00;;;;;;4974465;28;20399;-87
2023/08/11 08:02:04;;;;;;;8.23;4.20;;;20.00;92.90;;;;;;4974665;28;20037;-89
2023/08/11 08:04:29;;;;;;;8.02;3.60;;;20.10;92.90;;;;;;4974334;28;20035;-88
2023/08/11 08:06:55;;;;;;;6.40;3.25;;;20.20;92.90;;;;;;4957672;28;20031;-87
2023/08/11 08:09:21;;;;;;;7.95;3.53;;;20.30;92.80;;;;;;4993948;28;20113;-88
2023/08/11 08:11:48;;;;;;;6.38;3.47;;;20.30;92.80;;;;;;5009799;28;20034;-88
2023/08/11 08:14:14;;;;;;;7.43;3.65;;;20.40;92.70;;;;;;5010540;28;20109;-88
2023/08/11 08:16:44;;;;;;;7.65;3.70;;;20.50;92.60;;;;;;4993804;28;20038;-88
2023/08/11 08:19:11;;;;;;;6.18;3.60;;;20.60;92.50;;;;;;4994928;28;20535;-86
2023/08/11 08:21:37;;;;;;;6.38;3.33;;;20.70;92.80;;;;;;4993578;28;20081;-86
2023/08/11 08:24:04;;;;;;;8.05;3.70;;;20.70;92.40;;;;;;5009748;28;20053;-87
2023/08/11 08:26:31;;;;;;;8.07;3.50;;;20.80;92.30;;;;;;5009858;28;20117;-87
2023/08/11 08:28:57;;;;;;;6.72;3.10;;;20.90;92.30;;;;;;5010151;28;20030;-86
2023/08/11 08:31:22;;;;;;;4.70;2.65;;;21.00;92.20;;;;;;5010176;28;20037;-87
2023/08/11 08:33:48;;;;;;;5.45;3.03;;;21.00;92.10;;;;;;5008760;28;20474;-86
2023/08/11 08:36:14;;;;;;;5.93;3.10;;;21.10;92.00;;;;;;5009606;28;20053;-85
2023/08/11 08:38:39;;;;;;;6.13;3.13;;;21.20;91.90;;;;;;5009619;28;20076;-84
2023/08/11 08:41:08;;;;;;;6.97;3.05;;;21.20;91.70;;;;;;4993143;28;20441;-86
2023/08/11 08:43:35;;;;;;;7.53;3.13;;;21.30;91.70;;;;;;4994928;28;20030;-86
2023/08/11 08:46:02;;;;;;;8.13;2.83;;;21.40;91.60;;;;;;4977091;28;20022;-86
2023/08/11 08:48:35;;;;;;;6.72;2.85;;;21.50;91.50;;;;;;4994503;28;20065;-87
2023/08/11 08:51:01;;;;;;;5.93;2.50;;;21.60;91.30;;;;;;5009383;28;20073;-87
2023/08/11 08:53:27;;;;;;;5.03;2.60;;;21.70;91.30;;;;;;4993094;28;20039;-87
2023/08/11 08:55:53;;;;;;;6.35;2.60;;;21.80;91.20;;;;;;4976845;28;20117;-87
2023/08/11 08:58:19;;;;;;;7.50;2.85;;;21.90;91.00;;;;;;4993077;28;20121;-86
2023/08/11 09:00:45;;;;;;;7.53;2.78;;;21.90;90.80;;;;;;4993371;28;20065;-87
2023/08/11 09:03:12;;;;;;;7.53;2.90;;;22.00;90.70;;;;;;4977231;28;20045;-88
2023/08/11 09:05:38;;;;;;;4.78;2.08;;;22.20;90.70;;;;;;4993239;28;20027;-86
2023/08/11 09:08:04;;;;;;;4.80;2.28;;;22.20;90.60;;;;;;4993068;28;20454;-87
2023/08/11 09:10:31;;;;;;;5.13;2.40;;;22.30;90.40;;;;;;4993008;28;20042;-88
2023/08/11 09:12:56;;;;;;;4.85;2.38;;;22.40;90.40;;;;;;5000179;28;20022;-87
2023/08/11 09:15:22;;;;;;;5.90;2.72;;;22.50;90.20;;;;;;4977139;28;20109;-88
2023/08/11 09:17:48;;;;;;;4.35;2.42;;;22.60;90.00;;;;;;4976554;28;20076;-85
2023/08/11 09:20:17;;;;;;;4.88;2.40;;;22.70;89.30;;;;;;4976771;28;20026;-88
2023/08/11 09:22:43;;;;;;;3.88;2.05;;;22.80;88.60;;;;;;4976217;28;20429;-85
2023/08/11 09:25:10;;;;;;;5.25;2.20;;;22.90;88.30;;;;;;4976295;28;20022;-87
2023/08/11 09:27:36;;;;;;;6.07;2.45;;;23.00;87.80;;;;;;4989773;28;20042;-88
2023/08/11 09:30:03;;;;;;;6.15;2.55;;;23.10;86.50;;;;;;4992795;28;20540;-87
2023/08/11 09:32:32;;;;;;;4.72;2.20;;;23.20;85.80;;;;;;4992800;28;20114;-88
2023/08/11 09:35:07;;;;;;;5.55;1.98;;;23.30;85.10;;;;;;4992851;28;20498;-88
2023/08/11 09:37:33;;;;;;;3.97;1.90;;;23.40;84.50;;;;;;5009116;28;20109;-86
2023/08/11 09:40:03;;;;;;;5.43;2.22;;;23.60;84.20;;;;;;4976784;28;20494;-88
2023/08/11 09:42:29;;;;;;;6.88;2.45;;;23.70;83.60;;;;;;4993998;28;20395;-88
2023/08/11 09:44:55;;;;;;;4.70;2.13;;;23.80;82.70;;;;;;5010376;28;20019;-87
2023/08/11 09:47:20;;;;;;;5.68;2.25;;;23.90;81.90;;;;;;4996709;28;20050;-89
2023/08/11 09:49:46;;;;;;;6.40;2.25;;;24.10;81.60;;;;;;4997103;28;20030;-86
2023/08/11 09:52:13;;;;;;;4.40;2.00;;;24.30;80.80;;;;;;4980654;28;20018;-86
2023/08/11 09:54:43;;;;;;;6.43;2.30;;;24.40;80.30;;;;;;4998221;28;20026;-87
2023/08/11 09:57:11;;;;;;;3.40;1.98;;;24.60;79.80;;;;;;5013433;28;20022;-88
2023/08/11 09:59:38;;;;;;;8.43;2.72;;;24.70;79.30;;;;;;4996872;28;20434;-87
2023/08/11 10:02:05;;;;;;;5.57;2.40;;;24.90;78.90;;;;;;4997886;28;20030;-84
2023/08/11 10:04:38;;;;;;;6.32;2.58;;;25.00;78.40;;;;;;4996168;28;20026;-88
2023/08/11 10:07:10;;;;;;;10.20;2.55;;;25.20;77.80;;;;;;5012670;28;20506;-88
2023/08/11 10:09:37;;;;;;;5.18;1.83;;;25.30;77.10;;;;;;4997424;28;20030;-89
2023/08/11 10:12:04;;;;;;;8.88;2.08;;;25.50;76.90;;;;;;4996509;28;20505;-87
2023/08/11 10:14:33;;;;;;;4.25;2.13;;;25.70;76.50;;;;;;4996242;28;20102;-87
2023/08/11 10:16:59;;;;;;;5.30;2.10;;;25.90;75.90;;;;;;5012364;28;20027;-86
2023/08/11 10:19:26;;;;;;;4.43;2.10;;;26.00;75.40;;;;;;4979638;28;20411;-88
2023/08/11 10:21:52;;;;;;;7.05;2.70;;;26.10;74.80;;;;;;5012350;28;20022;-89
2023/08/11 10:24:18;;;;;;;4.22;2.20;;;26.30;74.50;;;;;;4996293;28;20093;-85
2023/08/11 10:26:44;;;;;;;4.93;1.80;;;26.40;73.40;;;;;;4963696;28;20023;-86
2023/08/11 10:29:11;;;;;;;5.35;1.88;;;26.60;72.80;;;;;;4996951;28;20034;-87
2023/08/11 10:32:03;;;;;;;4.57;1.50;;;26.80;72.50;;;;;;5012035;28;20029;-88
2023/08/11 10:34:29;;;;;;;6.05;1.95;;;27.20;71.90;;;;;;5011819;28;20038;-87
2023/08/11 10:36:56;;;;;;;5.35;2.53;;;27.40;71.10;;;;;;4979500;28;20030;-89
2023/08/11 10:39:23;;;;;;;5.25;2.15;;;27.60;70.00;;;;;;5005662;28;20108;-87
2023/08/11 10:41:50;;;;;;;5.13;2.30;;;28.00;69.40;;;;;;5012178;28;20050;-87
2023/08/11 10:44:26;;;;;;;5.60;1.90;;;28.40;68.90;;;;;;4995098;28;20453;-89
2023/08/11 10:46:51;;;;;;;6.10;2.00;;;28.70;68.70;;;;;;4996118;28;20105;-88
2023/08/11 10:49:18;;;;;;;4.68;1.67;;;29.00;68.00;;;;;;4995585;28;20458;-87
2023/08/11 10:51:44;;;;;;;3.17;1.40;;;29.50;68.00;;;;;;4997171;28;20026;-89
2023/08/11 10:54:17;;;;;;;4.03;1.75;;;30.20;67.50;;;;;;4979394;28;20378;-87
2023/08/11 10:56:45;;;;;;;3.10;1.58;;;30.80;66.00;;;;;;4994190;28;20030;-87
2023/08/11 10:59:23;;;;;;;5.57;1.92;;;31.50;65.30;;;;;;4979065;28;20193;-89
2023/08/11 11:01:51;;;;;;;4.65;1.65;;;32.10;63.30;;;;;;4995599;28;20109;-89
2023/08/11 11:04:19;;;;;;;2.90;1.63;;;32.70;63.20;;;;;;4995218;28;20026;-87
2023/08/11 11:06:47;;;;;;;2.97;1.42;;;33.30;61.20;;;;;;4995447;28;20033;-86
2023/08/11 11:09:14;;;;;;;3.05;1.20;;;33.90;60.30;;;;;;4995465;28;20073;-88
2023/08/11 11:11:40;;;;;;;3.55;1.35;;;34.50;59.00;;;;;;4995480;28;20034;-87
2023/08/11 11:14:07;;;;;;;2.78;1.20;;;35.00;57.90;;;;;;4995066;28;20064;-87
2023/08/11 11:16:34;;;;;;;3.83;1.40;;;35.20;56.20;;;;;;4995549;28;20034;-89
2023/08/11 11:19:01;;;;;;;3.25;1.25;;;35.40;54.80;;;;;;4978809;28;20026;-88
2023/08/11 11:21:27;;;;;;;4.82;1.10;;;35.50;54.30;;;;;;4995190;28;20382;-87
2023/08/11 11:23:53;;;;;;;5.00;1.48;;;35.80;53.90;;;;;;4996391;28;20518;-87
2023/08/11 11:26:23;;;;;;;3.33;1.38;;;36.10;52.60;;;;;;4994496;28;20031;-87
2023/08/11 11:28:49;;;;;;;4.32;1.50;;;36.50;52.10;;;;;;4994820;28;20026;-88
2023/08/11 11:31:16;;;;;;;4.47;1.60;;;36.70;51.40;;;;;;4994752;28;20030;-89
2023/08/11 11:33:42;;;;;;;3.40;1.70;;;37.10;51.20;;;;;;4996072;28;20035;-88
2023/08/11 11:36:08;;;;;;;2.38;1.13;;;37.40;50.30;;;;;;4994513;28;20121;-87
2023/08/11 11:38:34;;;;;;;2.10;1.10;;;37.70;49.50;;;;;;4994796;28;20065;-87
2023/08/11 11:41:00;;;;;;;4.57;1.35;;;38.00;49.10;;;;;;4994519;28;20074;-89
2023/08/11 11:43:25;;;;;;;2.58;1.30;;;38.20;48.80;;;;;;4994851;28;20057;-89
2023/08/11 11:45:52;;;;;;;3.67;1.33;;;38.50;48.00;;;;;;4978184;28;20541;-88
2023/08/11 11:48:21;;;;;;;2.60;1.23;;;38.70;47.60;;;;;;4994047;28;20490;-88
2023/08/11 11:50:47;;;;;;;1.95;1.08;;;38.80;47.10;;;;;;4994264;28;20085;-85
2023/08/11 11:53:13;;;;;;;3.92;1.10;;;39.00;47.00;;;;;;4994257;28;20030;-90
2023/08/11 11:55:46;;;;;;;1.88;1.10;;;39.10;46.30;;;;;;4977792;28;20414;-91
2023/08/11 11:58:15;;;;;;;3.25;1.30;;;39.20;45.80;;;;;;4977782;28;20121;-88
2023/08/11 12:00:42;;;;;;;2.72;1.25;;;39.50;45.30;;;;;;4978219;28;20042;-89
2023/08/11 12:03:09;;;;;;;3.95;1.15;;;39.80;44.90;;;;;;4978481;28;20107;-89
2023/08/11 12:05:35;;;;;;;3.83;1.00;;;40.00;44.00;;;;;;4994172;28;20015;-89
2023/08/11 12:08:22;;;;;;;1.90;1.05;;;40.00;44.00;;;;;;4993887;28;20034;-88
2023/08/11 12:10:52;;;;;;;2.55;0.90;;;40.00;42.70;;;;;;4993901;28;20025;-89
2023/08/11 12:13:18;;;;;;;2.00;1.08;;;40.00;42.70;;;;;;4977866;28;20058;-86
2023/08/11 12:15:47;;;;;;;3.05;0.90;;;40.10;42.70;;;;;;4993970;28;20486;-89
2023/08/11 12:18:13;;;;;;;2.45;1.50;;;40.00;42.30;;;;;;4994036;28;20030;-90
2023/08/11 12:20:40;;;;;;;2.58;1.00;;;40.20;42.70;;;;;;4994838;28;20487;-87
2023/08/11 12:23:06;;;;;;;2.97;1.30;;;40.30;42.30;;;;;;4993837;28;20066;-88
2023/08/11 12:25:32;;;;;;;6.40;1.17;;;40.40;42.10;;;;;;4993695;28;20023;-88
2023/08/11 12:28:01;;;;;;;1.55;0.80;;;40.50;41.80;;;;;;4994730;28;20114;-87
2023/08/11 12:30:27;;;;;;;3.83;1.05;;;40.60;42.10;;;;;;4994629;28;20406;-89
2023/08/11 12:32:53;;;;;;;3.55;0.95;;;40.70;41.90;;;;;;4977269;28;20034;-88
2023/08/11 12:35:18;;;;;;;2.30;1.10;;;40.70;41.70;;;;;;4977328;28;20121;-89
2023/08/11 12:37:44;;;;;;;5.80;1.20;;;40.50;41.50;;;;;;4993238;28;20510;-85
2023/08/11 12:40:10;;;;;;;3.42;1.15;;;40.30;41.60;;;;;;4990975;28;20054;-88
2023/08/11 12:42:36;;;;;;;3.83;1.00;;;40.40;41.70;;;;;;4977473;28;20042;-87